Time;durP1;ratioP1;P1;durP2;ratioP2;P2;SDS_P1;SDS_P2;PMS_P1;PMS_P2;Temp;Humidity;BMP_temperature;BMP_pressure;BME280_temperature;BME280_humidity;BME280_pressure;Samples;Min_cycle;Max_cycle;Signal;HPM_P1;HPM_P2
2023/07/27 00:00:10;;;;;;;3.07;2.60;;;;;;;13.65;95.13;100598.13;5020972;28;20480;-82
2023/07/27 00:02:44;;;;;;;2.73;2.53;;;;;;;13.58;96.04;100594.66;5022389;28;20428;-82
2023/07/27 00:05:19;;;;;;;3.17;2.40;;;;;;;13.55;96.52;100589.69;5019304;28;20404;-81
2023/07/27 00:07:59;;;;;;;4.50;3.17;;;;;;;13.44;97.55;100588.56;5003237;28;20445;-83
2023/07/27 00:10:37;;;;;;;3.00;2.80;;;;;;;13.44;98.77;100594.00;5013765;28;20449;-81
2023/07/27 00:13:32;;;;;;;4.13;2.70;;;;;;;13.34;98.80;100594.53;5037057;28;20452;-81
2023/07/27 00:16:12;;;;;;;3.27;2.97;;;;;;;13.22;100.00;100585.47;5035779;28;20505;-81
2023/07/27 00:18:52;;;;;;;5.70;2.60;;;;;;;13.29;100.00;100590.81;5034614;28;20503;-81
2023/07/27 00:21:22;;;;;;;3.27;2.67;;;;;;;13.26;100.00;100597.56;5022272;28;20450;-82
2023/07/27 00:24:04;;;;;;;3.40;2.87;;;;;;;13.32;100.00;100596.63;5003684;28;20445;-81
2023/07/27 00:26:50;;;;;;;3.50;2.90;;;;;;;13.23;100.00;100592.56;5039258;28;20428;-82
2023/07/27 00:29:48;;;;;;;4.90;2.70;;;;;;;13.03;100.00;100583.75;5020014;28;20472;-82
2023/07/27 00:32:28;;;;;;;4.50;3.70;;;;;;;12.96;100.00;100585.75;5003798;28;20463;-82
2023/07/27 00:34:58;;;;;;;4.30;3.37;;;;;;;12.96;100.00;100585.75;5022454;28;20466;-82
2023/07/27 00:37:29;;;;;;;5.60;3.23;;;;;;;12.80;100.00;100581.72;5021697;28;20436;-82
2023/07/27 00:40:00;;;;;;;3.10;2.80;;;;;;;12.77;100.00;100573.19;5035187;28;20426;-81
2023/07/27 00:42:42;;;;;;;3.00;2.80;;;;;;;12.71;100.00;100583.06;5012611;28;20460;-82
2023/07/27 00:45:38;;;;;;;3.93;3.40;;;;;;;12.75;100.00;100583.44;5018724;28;20435;-82
2023/07/27 00:48:24;;;;;;;8.27;3.90;;;;;;;12.69;100.00;100585.16;5008187;28;20790;-82
2023/07/27 00:51:18;;;;;;;5.90;3.33;;;;;;;12.62;100.00;100584.41;5003865;28;20516;-82
2023/07/27 00:53:54;;;;;;;3.97;3.23;;;;;;;12.54;100.00;100582.78;5022715;28;20953;-82
2023/07/27 00:56:29;;;;;;;4.40;3.53;;;;;;;12.55;100.00;100580.91;5021001;28;20431;-79
2023/07/27 00:59:09;;;;;;;3.73;3.40;;;;;;;12.53;100.00;100574.88;5025314;28;20464;-80
2023/07/27 01:01:53;;;;;;;4.43;4.03;;;;;;;12.44;100.00;100571.59;5007413;28;20449;-79
2023/07/27 01:04:25;;;;;;;5.10;4.00;;;;;;;12.48;100.00;100578.28;5018859;28;20826;-80
2023/07/27 01:07:01;;;;;;;4.43;4.03;;;;;;;12.45;100.00;100570.56;5015460;28;20526;-80
2023/07/27 01:09:36;;;;;;;4.40;3.50;;;;;;;12.46;100.00;100568.69;5009589;28;20487;-82
2023/07/27 01:12:16;;;;;;;5.00;4.60;;;;;;;12.41;100.00;100563.91;5014006;28;20947;-81
2023/07/27 01:15:17;;;;;;;4.20;3.47;;;;;;;12.38;100.00;100558.94;5015771;28;20442;-82
2023/07/27 01:17:58;;;;;;;4.47;4.07;;;;;;;12.54;100.00;100561.06;5015497;28;20449;-82
2023/07/27 01:20:35;;;;;;;6.13;4.80;;;;;;;12.50;100.00;100562.56;5020235;28;20453;-82
2023/07/27 01:23:52;;;;;;;5.03;4.50;;;;;;;12.51;100.00;100555.28;5010819;28;20495;-81
2023/07/27 01:26:52;;;;;;;4.50;4.00;;;;;;;12.39;100.00;100547.00;5024631;28;20914;-81
2023/07/27 01:29:52;;;;;;;5.20;4.07;;;;;;;12.37;100.00;100549.13;5024086;28;20522;-82
2023/07/27 01:32:29;;;;;;;5.10;4.33;;;;;;;12.34;100.00;100546.88;4998728;28;20933;-81
2023/07/27 01:35:03;;;;;;;4.57;4.10;;;;;;;12.25;100.00;100548.19;5019902;28;20460;-81
2023/07/27 01:37:46;;;;;;;5.80;4.23;;;;;;;12.33;100.00;100547.09;5004274;28;20449;-81
2023/07/27 01:40:16;;;;;;;5.30;3.80;;;;;;;12.25;100.00;100544.66;5020024;28;20507;-82
2023/07/27 01:42:51;;;;;;;4.60;4.17;;;;;;;12.24;100.00;100549.25;5021479;28;20412;-82
2023/07/27 01:45:28;;;;;;;4.03;3.70;;;;;;;12.40;100.00;100551.41;5027989;28;20458;-81
2023/07/27 01:48:14;;;;;;;5.33;4.57;;;;;;;12.37;100.00;100548.31;5021330;28;20468;-82
2023/07/27 01:50:57;;;;;;;4.60;4.20;;;;;;;12.20;100.00;100542.59;5022176;28;20431;-81
2023/07/27 01:53:36;;;;;;;5.50;4.20;;;;;;;12.12;100.00;100553.72;5019615;28;20444;-81
2023/07/27 01:56:16;;;;;;;4.43;4.03;;;;;;;12.17;100.00;100553.91;5018343;28;20461;-82
2023/07/27 01:58:55;;;;;;;4.73;4.07;;;;;;;12.12;100.00;100549.13;5001802;28;20808;-82
2023/07/27 02:01:26;;;;;;;5.50;5.03;;;;;;;12.11;100.00;100543.91;5019477;28;20403;-82
2023/07/27 02:04:19;;;;;;;6.47;4.23;;;;;;;12.11;100.00;100543.91;4994868;28;20511;-82
2023/07/27 02:07:23;;;;;;;5.90;5.30;;;;;;;12.06;100.00;100535.59;4999983;28;20418;-85
2023/07/27 02:10:04;;;;;;;5.63;4.97;;;;;;;12.04;100.00;100535.84;4983166;28;20519;-82
2023/07/27 02:12:46;;;;;;;4.80;4.40;;;;;;;12.06;100.00;100530.19;5022484;28;20443;-82
2023/07/27 02:15:23;;;;;;;5.13;4.60;;;;;;;12.08;100.00;100536.22;5006102;28;20476;-81
2023/07/27 02:18:04;;;;;;;5.83;5.33;;;;;;;12.00;100.00;100536.50;4975461;28;20604;-82
2023/07/27 02:20:39;;;;;;;5.57;5.07;;;;;;;11.97;100.00;100536.94;5022738;28;20437;-82
2023/07/27 02:23:13;;;;;;;5.33;4.83;;;;;;;12.12;100.00;100538.28;5015748;28;20444;-82
2023/07/27 02:25:48;;;;;;;6.53;5.93;;;;;;;12.07;100.00;100537.28;5024458;28;20467;-81
2023/07/27 02:28:42;;;;;;;5.70;5.03;;;;;;;12.13;100.00;100542.66;5025100;28;20428;-80
2023/07/27 02:31:22;;;;;;;6.60;5.30;;;;;;;12.04;100.00;100537.72;5010087;28;20946;-82
2023/07/27 02:34:11;;;;;;;6.17;5.67;;;;;;;12.14;100.00;100543.50;5028039;28;20429;-79
2023/07/27 02:39:42;;;;;;;5.57;5.07;;;;;;;12.24;100.00;100540.28;5029320;28;20873;-80
2023/07/27 02:42:28;;;;;;;6.13;5.23;;;;;;;12.27;100.00;100543.38;5029347;28;20433;-81
2023/07/27 02:45:17;;;;;;;12.20;5.20;;;;;;;12.28;100.00;100536.06;5034374;28;20419;-82
2023/07/27 02:48:05;;;;;;;5.33;4.70;;;;;;;12.35;100.00;100534.13;5017196;28;20453;-81
2023/07/27 02:50:53;;;;;;;5.57;5.17;;;;;;;12.39;100.00;100533.44;5021125;28;20444;-81
2023/07/27 02:53:46;;;;;;;5.87;5.37;;;;;;;12.27;100.00;100532.53;5011788;28;20448;-81
2023/07/27 02:56:31;;;;;;;8.53;5.10;;;;;;;12.33;100.00;100539.78;5036075;28;20462;-80
2023/07/27 02:59:01;;;;;;;5.80;5.10;;;;;;;12.19;100.00;100535.53;5006319;28;20470;-82
2023/07/27 03:01:44;;;;;;;6.17;5.57;;;;;;;12.25;100.00;100526.47;5018714;28;20426;-82
2023/07/27 03:04:22;;;;;;;5.70;5.20;;;;;;;12.17;100.00;100530.31;5014780;28;20491;-82
2023/07/27 03:06:52;;;;;;;6.00;5.40;;;;;;;12.11;100.00;100527.63;5001087;28;20418;-81
2023/07/27 03:09:40;;;;;;;5.03;4.60;;;;;;;12.23;100.00;100531.31;5001626;28;20979;-82
2023/07/27 03:12:28;;;;;;;6.30;5.33;;;;;;;12.14;100.00;100541.63;4996413;28;20531;-83
2023/07/27 03:15:32;;;;;;;6.70;6.00;;;;;;;12.17;100.00;100534.91;5018386;28;20471;-80
2023/07/27 03:18:13;;;;;;;7.43;6.50;;;;;;;12.26;100.00;100541.72;5011677;28;20441;-81
2023/07/27 03:21:13;;;;;;;6.83;6.13;;;;;;;12.25;100.00;100542.75;5006939;28;20800;-82
2023/07/27 03:23:59;;;;;;;6.70;5.87;;;;;;;12.09;100.00;100533.31;5003050;28;20453;-81
2023/07/27 03:30:11;;;;;;;6.40;5.80;;;;;;;12.25;100.00;100534.63;5025508;28;20439;-81
2023/07/27 03:32:53;;;;;;;6.13;5.53;;;;;;;12.39;100.00;100547.00;5023441;28;20418;-81
2023/07/27 03:36:05;;;;;;;5.63;5.13;;;;;;;12.35;100.00;100532.25;4987939;28;20591;-82
2023/07/27 03:38:40;;;;;;;7.97;5.83;;;;;;;12.76;100.00;100534.34;5016315;28;20456;-80
2023/07/27 03:41:18;;;;;;;5.63;5.10;;;;;;;13.33;100.00;100534.97;5075955;22;20474;-81
2023/07/27 03:43:50;;;;;;;6.50;5.37;;;;;;;13.62;100.00;100530.59;5039462;28;20413;-80
2023/07/27 03:46:19;;;;;;;6.37;5.40;;;;;;;13.90;100.00;100530.78;5036717;28;20506;-81
2023/07/27 03:48:49;;;;;;;5.60;4.87;;;;;;;14.73;97.08;100541.56;5036103;28;21014;-79
2023/07/27 03:51:22;;;;;;;5.90;5.47;;;;;;;15.53;90.68;100534.31;5041307;28;20470;-81
2023/07/27 03:53:53;;;;;;;6.80;5.37;;;;;;;16.23;85.71;100535.81;5039752;28;20506;-84
2023/07/27 03:56:38;;;;;;;4.47;4.07;;;;;;;17.00;80.54;100544.13;5038569;28;20469;-84
2023/07/27 03:59:09;;;;;;;4.33;3.83;;;;;;;17.57;75.81;100530.91;5041596;28;20448;-83
2023/07/27 04:01:46;;;;;;;5.60;5.10;;;;;;;17.83;74.10;100532.00;5035442;28;20437;-82
2023/07/27 04:04:22;;;;;;;4.80;4.30;;;;;;;18.27;71.00;100530.78;5036775;28;20455;-82
2023/07/27 04:07:04;;;;;;;4.93;4.50;;;;;;;18.47;70.05;100533.69;5033249;28;20436;-80
2023/07/27 04:09:36;;;;;;;5.37;4.50;;;;;;;18.85;67.08;100523.53;5052365;28;20399;-80
2023/07/27 04:12:07;;;;;;;7.17;4.47;;;;;;;19.29;65.11;100518.53;5061493;28;20494;-83
2023/07/27 04:14:40;;;;;;;9.50;4.37;;;;;;;19.18;64.89;100525.06;5040044;28;20471;-80
2023/07/27 04:17:12;;;;;;;8.00;4.33;;;;;;;19.37;63.90;100524.31;5053447;28;20443;-79
2023/07/27 04:19:41;;;;;;;5.90;4.73;;;;;;;19.74;62.61;100526.13;5055926;28;20544;-79
2023/07/27 04:22:11;;;;;;;4.77;4.20;;;;;;;20.05;61.21;100522.31;5056486;28;20416;-80
2023/07/27 04:24:40;;;;;;;4.50;4.10;;;;;;;20.10;61.20;100518.72;5054402;28;20428;-82
2023/07/27 04:27:11;;;;;;;5.10;4.43;;;;;;;20.55;58.74;100517.94;5062471;28;20382;-80
2023/07/27 04:29:42;;;;;;;4.67;4.03;;;;;;;21.01;57.50;100518.66;5048510;28;20448;-82
2023/07/27 04:32:11;;;;;;;4.80;3.80;;;;;;;21.09;56.29;100521.66;5038883;28;20444;-81
2023/07/27 04:34:43;;;;;;;4.70;3.90;;;;;;;21.03;56.85;100514.50;5030233;28;20893;-80
2023/07/27 04:37:12;;;;;;;4.27;3.87;;;;;;;21.12;56.15;100512.81;5034575;28;20522;-81
2023/07/27 04:39:44;;;;;;;8.20;4.70;;;;;;;21.15;55.79;100514.25;5030872;28;20614;-81
2023/07/27 04:42:17;;;;;;;4.30;3.80;;;;;;;21.35;55.53;100514.13;5039485;28;20464;-83
2023/07/27 04:44:50;;;;;;;4.70;4.40;;;;;;;21.80;53.34;100514.97;5034439;28;20414;-82
2023/07/27 04:47:19;;;;;;;5.07;4.60;;;;;;;22.10;52.62;100521.13;5036439;28;20444;-81
2023/07/27 04:49:50;;;;;;;4.63;4.20;;;;;;;22.29;52.38;100517.69;5029907;28;20466;-81
2023/07/27 04:52:28;;;;;;;5.23;4.50;;;;;;;22.35;51.85;100522.03;5041778;28;20501;-81
2023/07/27 04:55:11;;;;;;;5.73;4.30;;;;;;;22.39;51.59;100514.81;5033318;28;20840;-80
2023/07/27 04:57:54;;;;;;;9.10;3.90;;;;;;;22.91;50.63;100514.88;5038449;28;20430;-81
2023/07/27 05:00:25;;;;;;;5.40;3.80;;;;;;;22.94;50.60;100517.06;5035354;28;20811;-81
2023/07/27 05:02:54;;;;;;;9.43;4.43;;;;;;;23.15;48.79;100511.28;5037799;28;20529;-81
2023/07/27 05:05:43;;;;;;;4.93;4.43;;;;;;;23.26;49.05;100512.81;5029941;28;20410;-82
2023/07/27 05:08:18;;;;;;;5.93;5.37;;;;;;;23.15;48.80;100505.75;5035247;28;20430;-82
2023/07/27 05:10:51;;;;;;;5.90;4.63;;;;;;;22.84;49.91;100508.91;5040509;28;20526;-80
2023/07/27 05:13:23;;;;;;;6.03;4.57;;;;;;;23.12;48.96;100509.94;5038080;28;20462;-80
2023/07/27 05:15:59;;;;;;;5.87;4.87;;;;;;;23.20;49.33;100511.22;5039582;28;20461;-83
2023/07/27 05:18:33;;;;;;;4.67;4.17;;;;;;;23.20;48.49;100513.97;5039606;28;20472;-80
2023/07/27 05:21:04;;;;;;;5.93;5.27;;;;;;;22.65;49.62;100507.16;5038016;28;20511;-82
2023/07/27 05:23:36;;;;;;;5.40;4.90;;;;;;;22.38;49.91;100521.44;5040889;28;20893;-83
2023/07/27 05:26:20;;;;;;;7.37;4.43;;;;;;;22.43;49.31;100518.66;5040408;28;20831;-81
2023/07/27 05:29:12;;;;;;;7.23;4.40;;;;;;;23.00;48.43;100519.75;5025180;28;20449;-81
2023/07/27 05:32:42;;;;;;;5.53;4.60;;;;;;;23.27;47.47;100522.75;5035551;28;20439;-81
2023/07/27 05:42:20;;;;;;;6.27;4.93;;;;;;;18.59;60.88;100501.44;4922720;28;20496;-81
2023/07/27 05:44:54;;;;;;;7.17;5.63;;;;;;;18.10;63.07;100499.97;4968380;28;20454;-82
2023/07/27 05:47:23;;;;;;;4.80;4.03;;;;;;;17.89;64.75;100501.69;4973560;28;20438;-82
2023/07/27 05:49:55;;;;;;;7.73;5.00;;;;;;;17.74;65.77;100505.13;4974583;28;20782;-82
2023/07/27 05:52:28;;;;;;;5.60;5.10;;;;;;;17.53;66.34;100505.94;4981711;28;20513;-82
2023/07/27 05:55:01;;;;;;;5.67;5.10;;;;;;;17.51;66.37;100494.44;4979550;28;20427;-80
2023/07/27 05:57:31;;;;;;;5.30;4.80;;;;;;;17.57;66.73;100500.81;4986214;28;20460;-80
2023/07/27 06:02:45;;;;;;;10.83;5.20;;;;;;;18.16;65.21;100496.16;4967052;28;20534;-81
2023/07/27 06:05:16;;;;;;;8.80;5.63;;;;;;;18.30;63.78;100482.88;4976584;28;20439;-82
2023/07/27 06:08:00;;;;;;;5.87;5.37;;;;;;;18.42;64.35;100486.25;4992301;28;20440;-80
2023/07/27 06:10:33;;;;;;;5.10;4.60;;;;;;;18.59;64.37;100492.41;5040483;28;20510;-82
2023/07/27 06:13:16;;;;;;;8.23;6.37;;;;;;;18.81;64.12;100486.78;5031546;28;20432;-81
2023/07/27 06:15:58;;;;;;;8.20;4.80;;;;;;;18.85;61.97;100482.41;5039464;28;20424;-80
2023/07/27 06:18:28;;;;;;;9.17;5.00;;;;;;;18.73;62.85;100484.56;5031462;28;20438;-80
2023/07/27 06:21:04;;;;;;;6.70;4.40;;;;;;;18.74;62.68;100488.91;5033219;28;20985;-81
2023/07/27 06:23:35;;;;;;;6.90;5.53;;;;;;;18.87;61.95;100488.47;5041128;28;20505;-83
2023/07/27 06:26:06;;;;;;;7.03;4.60;;;;;;;18.94;61.29;100489.03;5049414;28;20487;-81
2023/07/27 06:28:41;;;;;;;7.53;4.30;;;;;;;19.04;61.00;100472.63;5058894;28;20470;-82
2023/07/27 06:31:11;;;;;;;12.10;5.33;;;;;;;19.08;60.95;100476.47;5052308;28;20422;-81
2023/07/27 06:33:42;;;;;;;5.00;4.50;;;;;;;19.15;60.83;100484.47;5046216;28;20447;-80
2023/07/27 06:36:14;;;;;;;6.30;4.80;;;;;;;18.98;61.20;100476.44;5031244;28;20410;-82
2023/07/27 06:38:44;;;;;;;5.80;5.30;;;;;;;19.05;60.13;100483.34;5027393;28;20456;-82
2023/07/27 06:41:13;;;;;;;10.03;5.30;;;;;;;19.19;59.94;100486.41;5037347;28;20530;-82
2023/07/27 06:43:44;;;;;;;6.47;4.83;;;;;;;19.25;60.41;100479.84;5039687;28;20428;-81
2023/07/27 06:46:14;;;;;;;5.87;4.80;;;;;;;19.35;59.14;100479.88;5047351;28;20432;-80
2023/07/27 06:48:44;;;;;;;5.93;5.33;;;;;;;19.52;58.25;100485.97;5044580;28;20455;-80
2023/07/27 06:51:13;;;;;;;6.20;5.33;;;;;;;19.67;57.84;100468.72;5047137;28;20419;-80
2023/07/27 06:53:44;;;;;;;4.93;4.40;;;;;;;19.89;58.11;100476.72;5045934;28;20416;-82
2023/07/27 06:56:17;;;;;;;5.50;4.60;;;;;;;19.96;58.44;100480.00;5046154;28;20521;-80
2023/07/27 06:58:46;;;;;;;5.23;4.60;;;;;;;19.99;58.32;100478.66;5041662;28;20502;-82
2023/07/27 07:01:15;;;;;;;5.07;4.13;;;;;;;19.75;58.20;100483.84;5041078;28;20462;-81
2023/07/27 07:03:44;;;;;;;6.60;4.77;;;;;;;19.88;57.88;100475.91;5027961;28;20457;-81
2023/07/27 07:06:14;;;;;;;5.60;5.00;;;;;;;19.69;58.87;100482.19;5038154;28;20444;-81
2023/07/27 07:08:44;;;;;;;11.27;5.23;;;;;;;19.95;58.41;100478.34;5037661;28;20437;-83
2023/07/27 07:11:13;;;;;;;6.67;4.93;;;;;;;20.24;57.74;100484.94;5037522;28;20426;-82
2023/07/27 07:13:42;;;;;;;5.13;4.10;;;;;;;20.47;56.51;100485.50;5038203;28;20414;-82
2023/07/27 07:16:12;;;;;;;5.77;5.03;;;;;;;20.52;55.26;100471.78;5039233;28;20413;-81
2023/07/27 07:18:41;;;;;;;5.83;5.23;;;;;;;20.47;54.63;100474.53;5046606;28;20990;-79
2023/07/27 07:21:11;;;;;;;5.93;5.27;;;;;;;20.74;54.53;100475.00;5057353;28;20415;-79
2023/07/27 07:23:40;;;;;;;7.10;6.10;;;;;;;21.14;53.56;100474.91;5059966;28;20428;-79
2023/07/27 07:26:11;;;;;;;6.30;5.07;;;;;;;21.34;52.96;100473.16;5066263;28;20529;-79
2023/07/27 07:28:40;;;;;;;6.10;4.47;;;;;;;21.38;53.21;100465.97;5060715;28;20413;-80
2023/07/27 07:31:09;;;;;;;6.20;5.20;;;;;;;21.12;53.00;100470.72;5056201;28;20454;-82
2023/07/27 07:33:39;;;;;;;11.03;5.60;;;;;;;21.31;52.66;100465.44;5038450;28;20887;-82
2023/07/27 07:36:08;;;;;;;5.30;4.80;;;;;;;21.75;52.19;100463.50;5053894;28;20483;-83
2023/07/27 07:38:37;;;;;;;8.80;4.47;;;;;;;22.11;51.72;100466.84;5038324;28;20531;-82
2023/07/27 07:41:06;;;;;;;7.33;4.60;;;;;;;22.35;51.86;100462.22;5038754;28;20472;-81
2023/07/27 07:43:39;;;;;;;5.73;4.90;;;;;;;22.36;51.07;100458.34;5038500;28;20432;-81
2023/07/27 07:46:11;;;;;;;5.67;4.13;;;;;;;22.56;50.84;100460.06;5046157;28;20442;-82
2023/07/27 07:48:40;;;;;;;7.00;4.67;;;;;;;22.63;50.45;100451.44;5032565;28;20454;-82
2023/07/27 07:51:11;;;;;;;6.30;5.50;;;;;;;22.40;50.12;100453.06;5060929;28;20507;-81
2023/07/27 07:53:40;;;;;;;5.53;4.47;;;;;;;21.57;51.74;100450.44;5055583;28;20447;-81
2023/07/27 07:56:14;;;;;;;5.07;4.47;;;;;;;21.70;52.97;100449.78;5046556;28;20477;-82
2023/07/27 07:58:45;;;;;;;6.40;4.77;;;;;;;21.79;52.61;100449.97;5034809;28;20574;-82
2023/07/27 08:01:14;;;;;;;6.20;4.90;;;;;;;22.01;52.64;100459.50;5037476;28;21041;-83
2023/07/27 08:03:47;;;;;;;4.97;4.50;;;;;;;22.12;52.05;100457.47;5039703;28;20432;-84
2023/07/27 08:06:17;;;;;;;10.20;4.60;;;;;;;22.32;52.57;100456.44;5038859;28;20523;-81
2023/07/27 08:08:47;;;;;;;5.50;4.87;;;;;;;22.47;50.17;100446.09;5041593;28;20427;-81
2023/07/27 08:11:15;;;;;;;4.97;4.57;;;;;;;22.67;50.87;100456.09;5037208;28;21004;-81
2023/07/27 08:13:46;;;;;;;6.30;4.40;;;;;;;22.69;49.60;100445.59;5039012;28;20432;-83
2023/07/27 08:16:15;;;;;;;8.37;4.73;;;;;;;22.24;51.14;100454.31;5055419;28;20539;-82
2023/07/27 08:18:45;;;;;;;4.90;4.40;;;;;;;22.25;51.26;100450.47;5039688;28;20463;-81
2023/07/27 08:21:14;;;;;;;6.10;5.27;;;;;;;22.03;51.32;100449.00;5037901;28;20473;-82
2023/07/27 08:23:43;;;;;;;5.30;4.80;;;;;;;21.90;51.89;100443.28;5036873;28;20406;-82
2023/07/27 08:26:12;;;;;;;5.43;4.93;;;;;;;21.58;52.63;100446.56;5038188;28;20458;-80
2023/07/27 08:28:41;;;;;;;5.50;4.60;;;;;;;21.56;53.75;100443.28;5043250;28;20428;-83
2023/07/27 08:31:12;;;;;;;5.57;4.90;;;;;;;21.45;54.34;100441.69;5041496;28;20461;-82
2023/07/27 08:33:41;;;;;;;8.10;5.47;;;;;;;21.69;53.75;100434.34;5041843;28;20465;-82
2023/07/27 08:36:10;;;;;;;9.37;5.00;;;;;;;21.70;53.54;100433.25;5043724;28;20466;-81
2023/07/27 08:38:39;;;;;;;6.00;5.23;;;;;;;21.27;53.80;100434.09;5048914;28;20464;-81
2023/07/27 08:41:09;;;;;;;4.97;4.50;;;;;;;21.21;54.50;100431.38;5053650;28;20574;-81
2023/07/27 08:43:38;;;;;;;7.40;5.27;;;;;;;21.15;54.75;100427.03;5055333;28;20403;-81
2023/07/27 08:46:08;;;;;;;6.37;5.53;;;;;;;21.16;55.20;100417.63;5051350;28;20866;-82
2023/07/27 08:48:42;;;;;;;6.03;4.33;;;;;;;21.33;55.45;100416.44;5042003;28;20440;-82
2023/07/27 08:51:12;;;;;;;5.63;4.93;;;;;;;21.35;55.04;100414.25;5038652;28;20522;-81
2023/07/27 08:53:41;;;;;;;5.43;4.93;;;;;;;21.18;55.68;100409.09;5045477;28;20469;-83
2023/07/27 08:56:10;;;;;;;7.77;5.03;;;;;;;21.24;54.65;100403.31;5036688;28;20440;-81
2023/07/27 08:58:40;;;;;;;7.17;5.50;;;;;;;21.22;54.72;100407.44;5047293;28;20439;-83
2023/07/27 09:01:09;;;;;;;7.47;5.00;;;;;;;21.54;54.46;100402.25;5041944;28;20460;-82
2023/07/27 09:03:43;;;;;;;7.43;5.07;;;;;;;21.75;54.05;100391.91;5037082;28;20436;-83
2023/07/27 09:06:13;;;;;;;10.23;5.30;;;;;;;21.63;53.71;100394.22;5043623;28;20399;-80
2023/07/27 09:08:43;;;;;;;5.70;4.80;;;;;;;21.96;53.35;100382.41;5036616;28;20436;-81
2023/07/27 09:11:12;;;;;;;4.63;4.23;;;;;;;21.74;52.14;100384.75;5040742;28;20682;-82
2023/07/27 09:13:42;;;;;;;6.80;6.17;;;;;;;21.54;52.98;100374.72;5038730;28;20432;-80
2023/07/27 09:16:11;;;;;;;6.60;5.60;;;;;;;21.71;52.19;100385.34;5037032;28;20937;-81
2023/07/27 09:18:42;;;;;;;5.20;4.70;;;;;;;21.87;52.80;100381.34;5039442;28;20468;-82
2023/07/27 09:21:11;;;;;;;5.37;4.93;;;;;;;22.28;51.31;100389.22;5049084;28;20446;-80
2023/07/27 09:23:41;;;;;;;4.70;4.30;;;;;;;22.40;50.88;100381.41;5049926;28;20457;-82
2023/07/27 09:26:10;;;;;;;7.70;5.13;;;;;;;22.31;50.79;100374.88;5051612;28;20419;-80
2023/07/27 09:28:39;;;;;;;5.03;4.60;;;;;;;22.00;51.38;100372.44;5051041;28;20448;-79
2023/07/27 09:31:10;;;;;;;10.47;6.57;;;;;;;22.00;51.53;100372.44;5053687;28;20440;-81
2023/07/27 09:33:39;;;;;;;5.93;5.33;;;;;;;22.05;51.61;100364.13;5050962;28;20438;-80
2023/07/27 09:36:11;;;;;;;5.27;4.67;;;;;;;21.93;51.60;100355.41;5059148;28;20797;-83
2023/07/27 09:38:44;;;;;;;6.37;5.50;;;;;;;21.97;51.34;100356.50;5049292;28;20471;-81
2023/07/27 09:42:00;;;;;;;7.63;5.40;;;;;;;21.94;52.62;100351.56;5074587;22;20467;-80
2023/07/27 09:44:55;;;;;;;6.00;5.40;;;;;;;21.88;51.05;100347.16;5000019;28;20460;-82
2023/07/27 09:52:20;;;;;;;5.93;5.13;;;;;;;22.07;51.02;100344.56;4928940;28;20441;-81
2023/07/27 09:56:04;;;;;;;7.40;5.87;;;;;;;22.13;51.54;100332.34;4961689;28;20422;-81
2023/07/27 10:03:04;;;;;;;11.73;5.70;;;;;;;21.16;54.54;100346.09;4975394;28;20409;-82
2023/07/27 10:10:42;;;;;;;7.03;5.53;;;;;;;20.48;57.01;100344.25;4975195;28;20441;-82
2023/07/27 10:17:09;;;;;;;9.37;6.20;;;;;;;19.98;58.07;100343.25;4924472;28;20482;-81
2023/07/27 10:20:12;;;;;;;9.73;6.00;;;;;;;20.29;58.23;100341.22;4962943;28;20473;-82
2023/07/27 10:23:18;;;;;;;8.93;5.70;;;;;;;20.66;57.41;100335.38;4985755;28;20433;-82
2023/07/27 10:36:18;;;;;;;;;;;;;;;;;;;;;
2023/07/27 10:44:47;;;;;;;;;;;;;;;;;;;;;
2023/07/27 10:52:38;;;;;;;5.50;4.53;;;;;;;22.45;53.87;100353.78;4833507;29;20474;-82
2023/07/27 10:56:10;;;;;;;5.40;4.90;;;;;;;22.01;54.10;100345.72;4870542;29;20475;-80
2023/07/27 11:11:26;;;;;;;5.40;4.90;;;;;;;22.48;53.16;100328.38;4832919;29;20484;-82
2023/07/27 11:14:22;;;;;;;5.00;4.47;;;;;;;22.34;53.17;100319.16;4854975;29;20893;-81
2023/07/27 11:17:32;;;;;;;7.40;4.63;;;;;;;21.92;54.44;100315.19;4883160;29;20434;-81
2023/07/27 11:20:20;;;;;;;6.17;4.70;;;;;;;22.17;53.99;100318.81;4911968;29;20460;-80
2023/07/27 11:23:00;;;;;;;4.67;4.23;;;;;;;22.21;53.79;100315.19;4898402;29;20428;-81
2023/07/27 11:26:19;;;;;;;5.80;5.00;;;;;;;22.43;53.69;100314.63;4836002;29;20423;-81
2023/07/27 11:29:00;;;;;;;8.63;5.20;;;;;;;22.57;54.13;100304.53;4869609;29;20835;-81
2023/07/27 11:31:33;;;;;;;4.93;4.27;;;;;;;22.05;55.00;100311.78;4865223;29;20465;-81
2023/07/27 11:34:13;;;;;;;6.03;5.00;;;;;;;21.76;56.37;100305.44;4857854;29;20417;-81
2023/07/27 11:36:53;;;;;;;5.40;4.50;;;;;;;21.57;57.50;100296.25;4859764;29;20817;-82
2023/07/27 11:39:29;;;;;;;8.23;5.87;;;;;;;21.65;57.26;100293.69;4851058;29;20584;-82
2023/07/27 11:42:28;;;;;;;7.40;4.90;;;;;;;21.75;58.02;100292.78;4924040;29;20430;-82
2023/07/27 11:45:02;;;;;;;5.20;4.70;;;;;;;21.86;57.31;100277.78;4932539;29;20480;-81
2023/07/27 11:47:46;;;;;;;8.03;5.50;;;;;;;21.75;57.56;100284.50;4929536;29;20512;-81
2023/07/27 11:50:20;;;;;;;8.90;5.30;;;;;;;21.65;58.93;100284.59;4935874;29;20472;-81
2023/07/27 11:53:11;;;;;;;7.77;5.30;;;;;;;21.59;60.44;100272.03;4931401;29;20445;-80
2023/07/27 11:56:29;;;;;;;5.87;5.20;;;;;;;21.49;61.47;100266.59;4934659;29;20888;-81
2023/07/27 11:59:26;;;;;;;5.33;4.83;;;;;;;21.69;61.08;100271.88;4936347;29;20411;-80
2023/07/27 12:10:11;;;;;;;8.83;6.57;;;;;;;21.78;62.05;100255.56;4927388;29;20466;-81
2023/07/27 12:18:01;;;;;;;8.10;5.63;;;;;;;21.90;61.97;100245.78;4900224;29;20428;-81
2023/07/27 12:21:16;;;;;;;7.37;5.90;;;;;;;21.65;61.56;100248.81;4917429;29;20485;-83
2023/07/27 12:28:39;;;;;;;8.60;4.97;;;;;;;21.77;62.91;100248.41;4920223;29;20513;-81
2023/07/27 12:32:11;;;;;;;6.17;5.57;;;;;;;21.74;64.56;100246.22;4892357;29;20503;-82
2023/07/27 12:35:45;;;;;;;6.57;5.67;;;;;;;21.78;62.48;100242.63;4909152;29;20424;-82
2023/07/27 12:39:33;;;;;;;6.40;5.37;;;;;;;21.87;62.72;100229.88;4917827;29;20447;-82
2023/07/27 12:42:38;;;;;;;8.00;5.97;;;;;;;22.19;61.76;100236.66;4942187;28;20459;-82
2023/07/27 12:45:46;;;;;;;6.10;5.60;;;;;;;21.99;60.82;100226.72;4946045;29;20447;-81
2023/07/27 12:48:38;;;;;;;10.37;6.60;;;;;;;22.03;60.32;100216.75;4947920;29;20820;-82
2023/07/27 12:51:47;;;;;;;6.40;5.80;;;;;;;22.27;59.80;100213.97;4938064;29;20474;-80
2023/07/27 12:58:18;;;;;;;8.93;6.57;;;;;;;22.46;58.26;100198.28;4929352;29;20488;-82
2023/07/27 13:01:05;;;;;;;5.47;4.97;;;;;;;22.47;58.95;100199.91;4947202;28;20522;-82
2023/07/27 13:03:45;;;;;;;8.67;6.77;;;;;;;22.41;60.09;100192.84;4947535;29;20422;-81
2023/07/27 13:06:36;;;;;;;6.17;5.37;;;;;;;22.57;59.17;100183.22;4931648;29;20425;-82
2023/07/27 13:09:46;;;;;;;7.90;5.90;;;;;;;22.93;59.93;100195.38;4937502;29;20441;-82
2023/07/27 13:15:47;;;;;;;6.00;5.20;;;;;;;22.83;58.80;100201.03;4949758;28;20456;-82
2023/07/27 13:19:08;;;;;;;7.47;5.80;;;;;;;23.08;57.72;100191.53;4969308;28;20444;-81
2023/07/27 13:21:54;;;;;;;5.87;4.80;;;;;;;22.99;57.83;100204.38;4983384;28;20465;-81
2023/07/27 13:24:36;;;;;;;9.17;5.77;;;;;;;22.41;58.77;100199.13;4971728;28;20522;-83
2023/07/27 13:27:13;;;;;;;9.00;6.27;;;;;;;22.18;60.71;100196.44;4969910;28;20409;-82
2023/07/27 13:29:46;;;;;;;8.30;6.30;;;;;;;21.84;61.59;100197.38;4968523;28;20414;-83
2023/07/27 13:32:27;;;;;;;6.40;5.83;;;;;;;21.49;63.03;100206.88;4964918;28;20760;-81
2023/07/27 13:39:30;;;;;;;6.23;5.63;;;;;;;21.44;64.15;100197.84;4893086;28;20530;-81
2023/07/27 13:46:10;;;;;;;5.30;4.77;;;;;;;20.94;64.41;100183.41;4969421;28;20447;-82
2023/07/27 13:56:08;;;;;;;5.33;4.83;;;;;;;20.66;64.83;100164.94;4975441;28;20827;-81
2023/07/27 14:02:13;;;;;;;6.00;3.87;;;;;;;20.97;64.21;100155.31;4964954;28;20538;-81
2023/07/27 14:05:20;;;;;;;5.23;4.73;;;;;;;21.24;62.42;100155.66;4967266;28;20451;-82
2023/07/27 14:08:13;;;;;;;4.30;3.90;;;;;;;21.49;61.60;100148.25;4970197;28;20434;-82
2023/07/27 14:11:34;;;;;;;;;;;;;;;;;;;;;
2023/07/27 14:14:36;;;;;;;5.70;5.13;;;;;;;21.53;60.49;100149.28;4965268;28;20451;-82
2023/07/27 14:17:23;;;;;;;5.60;4.13;;;;;;;21.47;60.85;100145.78;4972687;28;20406;-81